Time;durP1;ratioP1;P1;durP2;ratioP2;P2;SDS_P1;SDS_P2;PMS_P1;PMS_P2;Temp;Humidity;BMP_temperature;BMP_pressure;BME280_temperature;BME280_humidity;BME280_pressure;Samples;Min_cycle;Max_cycle;Signal;HPM_P1;HPM_P2
2022/10/19 00:00:02;;;;;;;10.57;7.50;;;12.60;89.30;;;;;;5073814;28;20839;-73
2022/10/19 00:02:29;;;;;;;9.43;7.90;;;12.50;89.10;;;;;;5073836;28;20484;-73
2022/10/19 00:04:56;;;;;;;13.53;8.70;;;12.50;89.10;;;;;;5073739;28;20452;-74
2022/10/19 00:07:24;;;;;;;9.90;8.30;;;12.50;89.10;;;;;;5074112;28;20447;-74
2022/10/19 00:09:51;;;;;;;12.93;9.93;;;12.50;89.00;;;;;;5073709;28;20468;-73
2022/10/19 00:12:18;;;;;;;15.10;10.33;;;12.50;89.30;;;;;;5073626;28;21052;-73
2022/10/19 00:14:44;;;;;;;9.83;7.47;;;12.50;89.50;;;;;;5073525;28;20954;-73
2022/10/19 00:17:11;;;;;;;13.27;8.00;;;12.50;89.60;;;;;;5073404;28;20854;-73
2022/10/19 00:19:38;;;;;;;10.40;7.43;;;12.50;89.70;;;;;;5073647;28;20480;-73
2022/10/19 00:22:05;;;;;;;10.50;6.67;;;12.50;89.70;;;;;;5072297;28;20486;-73
2022/10/19 00:24:33;;;;;;;8.90;6.67;;;12.40;89.60;;;;;;5074051;28;20461;-74
2022/10/19 00:27:00;;;;;;;12.20;6.53;;;12.40;89.70;;;;;;5073571;28;20460;-73
2022/10/19 00:29:27;;;;;;;7.87;6.17;;;12.40;89.70;;;;;;5073391;28;20481;-74
2022/10/19 00:31:54;;;;;;;7.87;6.87;;;12.40;89.70;;;;;;5073567;28;20452;-73
2022/10/19 00:34:20;;;;;;;13.97;12.00;;;12.40;89.70;;;;;;5073549;28;20458;-73
2022/10/19 00:36:47;;;;;;;15.73;12.77;;;12.30;89.50;;;;;;5073588;28;20443;-73
2022/10/19 00:39:17;;;;;;;18.37;12.63;;;12.30;89.80;;;;;;5073187;28;20952;-74
2022/10/19 00:41:46;;;;;;;15.10;12.30;;;12.20;90.00;;;;;;5087058;28;20492;-74
2022/10/19 00:44:50;;;;;;;14.10;11.67;;;12.20;90.10;;;;;;5093922;28;20451;-74
2022/10/19 00:47:23;;;;;;;9.40;8.40;;;12.10;90.10;;;;;;5093742;28;20868;-73
2022/10/19 00:49:49;;;;;;;6.27;5.23;;;12.10;89.80;;;;;;5093658;28;20467;-74
2022/10/19 00:52:19;;;;;;;6.50;4.73;;;12.10;89.80;;;;;;5093913;28;20426;-74
2022/10/19 00:54:48;;;;;;;4.77;4.20;;;12.00;89.90;;;;;;5091753;28;20446;-75
2022/10/19 00:57:16;;;;;;;5.60;4.83;;;12.00;89.70;;;;;;5088817;28;20824;-74
2022/10/19 00:59:45;;;;;;;6.10;5.50;;;12.00;89.70;;;;;;5076352;28;20483;-74
2022/10/19 01:02:12;;;;;;;6.40;4.30;;;12.00;89.80;;;;;;5073354;28;20483;-73
2022/10/19 01:04:44;;;;;;;6.37;4.60;;;12.00;89.50;;;;;;5080332;28;20443;-74
2022/10/19 01:07:11;;;;;;;4.43;3.37;;;11.90;89.60;;;;;;5093630;28;20441;-74
2022/10/19 01:09:38;;;;;;;4.10;3.70;;;11.90;89.50;;;;;;5093422;28;20476;-73
2022/10/19 01:12:12;;;;;;;4.17;3.70;;;11.90;89.50;;;;;;5093595;28;20454;-74
2022/10/19 01:14:54;;;;;;;5.93;4.03;;;11.80;89.50;;;;;;5096864;28;20454;-73
2022/10/19 01:17:33;;;;;;;11.60;3.70;;;11.80;89.70;;;;;;5085723;28;20511;-73
2022/10/19 01:20:47;;;;;;;7.20;4.87;;;11.80;89.70;;;;;;5098906;28;20473;-73
2022/10/19 01:23:50;;;;;;;5.00;3.07;;;11.80;89.70;;;;;;5097404;28;20950;-73
2022/10/19 01:26:33;;;;;;;8.20;3.50;;;11.70;89.40;;;;;;5090463;28;20462;-73
2022/10/19 01:29:10;;;;;;;4.50;3.80;;;11.70;89.50;;;;;;5076489;28;20939;-74
2022/10/19 01:31:45;;;;;;;6.07;3.50;;;11.70;89.40;;;;;;5083842;28;20455;-74
2022/10/19 01:34:18;;;;;;;4.50;3.67;;;11.70;89.40;;;;;;5085902;28;20506;-74
2022/10/19 01:36:52;;;;;;;2.80;2.60;;;11.70;89.50;;;;;;5076711;28;20460;-74
2022/10/19 01:39:28;;;;;;;4.10;2.80;;;11.70;89.50;;;;;;5078521;28;20492;-74
2022/10/19 01:42:02;;;;;;;5.70;3.80;;;11.60;89.70;;;;;;5081723;28;20492;-74
2022/10/19 01:44:37;;;;;;;6.80;3.57;;;11.60;89.80;;;;;;5077309;28;20472;-74
2022/10/19 01:47:10;;;;;;;5.10;3.87;;;11.60;90.00;;;;;;5079116;28;20457;-74
2022/10/19 01:49:43;;;;;;;3.80;2.90;;;11.60;90.10;;;;;;5077895;28;20509;-74
2022/10/19 01:52:14;;;;;;;4.57;3.30;;;11.50;89.80;;;;;;5087397;28;20453;-74
2022/10/19 01:54:45;;;;;;;10.13;3.73;;;11.50;89.80;;;;;;5095147;28;20962;-73
2022/10/19 01:57:17;;;;;;;3.77;3.07;;;11.50;90.00;;;;;;5094612;28;20466;-73
2022/10/19 01:59:45;;;;;;;3.70;3.40;;;11.50;89.90;;;;;;5079265;28;20482;-74
2022/10/19 02:02:14;;;;;;;5.90;3.77;;;11.50;89.70;;;;;;5077074;28;20479;-74
2022/10/19 02:04:42;;;;;;;3.93;3.63;;;11.40;89.10;;;;;;5079343;28;20468;-74
2022/10/19 02:07:11;;;;;;;4.00;3.43;;;11.40;89.40;;;;;;5083819;28;20471;-74
2022/10/19 02:09:38;;;;;;;4.30;3.17;;;11.40;89.30;;;;;;5094525;28;20481;-73
2022/10/19 02:12:10;;;;;;;4.10;3.10;;;11.30;89.20;;;;;;5091355;28;20486;-74
2022/10/19 02:14:42;;;;;;;3.73;2.90;;;11.30;89.20;;;;;;5075937;28;20911;-73
2022/10/19 02:17:12;;;;;;;3.97;2.97;;;11.30;89.00;;;;;;5076827;28;20813;-74
2022/10/19 02:19:41;;;;;;;4.10;2.90;;;11.30;88.90;;;;;;5076373;28;20478;-73
2022/10/19 02:22:08;;;;;;;3.67;3.37;;;11.30;88.70;;;;;;5076204;28;20476;-73
2022/10/19 02:24:35;;;;;;;3.10;2.90;;;11.30;88.50;;;;;;5096026;28;20999;-73
2022/10/19 02:27:04;;;;;;;4.20;3.37;;;11.30;88.60;;;;;;5095871;28;20965;-74
2022/10/19 02:29:32;;;;;;;3.60;3.27;;;11.30;88.70;;;;;;5085750;28;20514;-73
2022/10/19 02:32:00;;;;;;;4.90;3.40;;;11.30;88.90;;;;;;5075850;28;20907;-73
2022/10/19 02:34:27;;;;;;;3.73;3.43;;;11.20;89.00;;;;;;5076203;28;20795;-73
2022/10/19 02:36:55;;;;;;;3.47;3.17;;;11.20;89.10;;;;;;5075986;28;20448;-74
2022/10/19 02:39:22;;;;;;;3.30;2.40;;;11.10;88.90;;;;;;5075779;28;20471;-73
2022/10/19 02:41:54;;;;;;;3.20;2.90;;;11.10;89.10;;;;;;5075278;28;20565;-73
2022/10/19 02:44:25;;;;;;;5.37;2.77;;;11.10;89.40;;;;;;5075841;28;20450;-73
2022/10/19 02:46:57;;;;;;;3.73;2.70;;;11.00;89.30;;;;;;5075339;28;20816;-73
2022/10/19 02:49:25;;;;;;;2.33;2.10;;;11.00;89.40;;;;;;5076041;28;20476;-73
2022/10/19 02:52:01;;;;;;;2.43;2.23;;;11.00;89.40;;;;;;5075629;28;20439;-73
2022/10/19 02:54:28;;;;;;;3.10;2.70;;;11.00;89.30;;;;;;5075833;28;20438;-73
2022/10/19 02:56:55;;;;;;;3.27;2.47;;;11.00;89.10;;;;;;5076016;28;20514;-73
2022/10/19 02:59:23;;;;;;;4.83;3.30;;;11.00;89.10;;;;;;5075533;28;20474;-73
2022/10/19 03:01:50;;;;;;;5.90;2.90;;;10.90;88.90;;;;;;5075492;28;20513;-73
2022/10/19 03:04:17;;;;;;;5.80;2.97;;;10.90;88.90;;;;;;5075478;28;20455;-73
2022/10/19 03:06:44;;;;;;;3.90;3.07;;;10.90;89.00;;;;;;5075377;28;20931;-73
2022/10/19 03:09:12;;;;;;;3.83;3.03;;;10.90;89.00;;;;;;5075154;28;21001;-73
2022/10/19 03:11:39;;;;;;;7.10;4.10;;;10.90;89.00;;;;;;5075904;28;20452;-73
2022/10/19 03:14:06;;;;;;;4.83;3.17;;;10.80;89.00;;;;;;5075755;28;20957;-73
2022/10/19 03:16:32;;;;;;;4.10;3.10;;;10.80;89.20;;;;;;5075223;28;20514;-73
2022/10/19 03:18:59;;;;;;;3.77;3.10;;;10.80;89.20;;;;;;5092490;28;20497;-73
2022/10/19 03:21:26;;;;;;;4.87;3.40;;;10.70;89.10;;;;;;5084193;28;20465;-73
2022/10/19 03:23:53;;;;;;;2.97;2.40;;;10.70;89.60;;;;;;5076762;28;20817;-73
2022/10/19 03:26:21;;;;;;;4.77;2.40;;;10.70;89.10;;;;;;5079236;28;20825;-73
2022/10/19 03:28:48;;;;;;;4.47;2.63;;;10.60;88.90;;;;;;5093331;28;20451;-73
2022/10/19 03:31:15;;;;;;;2.30;2.10;;;10.60;88.90;;;;;;5081513;28;20475;-73
2022/10/19 03:33:41;;;;;;;2.80;1.80;;;10.50;89.30;;;;;;5089746;28;20462;-73
2022/10/19 03:36:16;;;;;;;2.53;2.33;;;10.50;89.50;;;;;;5089833;28;20458;-73
2022/10/19 03:38:43;;;;;;;3.30;2.03;;;10.50;90.00;;;;;;5089069;28;20960;-73
2022/10/19 03:41:11;;;;;;;2.27;1.87;;;10.40;90.00;;;;;;5075588;28;20493;-73
2022/10/19 03:43:40;;;;;;;3.60;2.37;;;10.40;90.10;;;;;;5080689;28;20490;-73
2022/10/19 03:46:07;;;;;;;3.47;2.00;;;10.40;90.10;;;;;;5086541;28;20498;-73
2022/10/19 03:48:35;;;;;;;4.37;2.13;;;10.40;90.00;;;;;;5086391;28;20541;-73
2022/10/19 03:51:03;;;;;;;9.93;3.13;;;10.40;90.10;;;;;;5080467;28;20488;-73
2022/10/19 03:53:30;;;;;;;6.90;2.80;;;10.40;90.10;;;;;;5077799;28;20533;-73
2022/10/19 03:56:02;;;;;;;6.50;2.73;;;10.40;90.50;;;;;;5094891;28;20458;-73
2022/10/19 03:58:29;;;;;;;3.77;3.20;;;10.40;90.20;;;;;;5088233;28;20505;-73
2022/10/19 04:00:57;;;;;;;7.27;3.20;;;10.40;90.20;;;;;;5073380;28;20475;-73
2022/10/19 04:03:24;;;;;;;4.17;3.43;;;10.40;90.30;;;;;;5074339;28;20477;-73
2022/10/19 04:05:50;;;;;;;8.23;3.47;;;10.40;90.40;;;;;;5079525;28;20465;-73
2022/10/19 04:08:17;;;;;;;3.80;3.00;;;10.40;90.40;;;;;;5073565;28;20991;-73
2022/10/19 04:10:44;;;;;;;5.40;4.07;;;10.40;90.60;;;;;;5074018;28;20479;-73
2022/10/19 04:13:11;;;;;;;7.40;3.30;;;10.50;90.80;;;;;;5073299;28;20459;-73
2022/10/19 04:15:38;;;;;;;7.77;4.17;;;10.50;90.90;;;;;;5090135;28;20875;-73
2022/10/19 04:18:06;;;;;;;3.70;3.33;;;10.50;90.90;;;;;;5072626;28;20467;-73
2022/10/19 04:20:33;;;;;;;5.90;3.67;;;10.50;91.10;;;;;;5092668;28;20497;-73
2022/10/19 04:23:00;;;;;;;5.13;3.50;;;10.50;91.20;;;;;;5093245;28;20483;-73
2022/10/19 04:25:27;;;;;;;8.50;3.70;;;10.50;91.30;;;;;;5081894;28;20467;-73
2022/10/19 04:27:54;;;;;;;5.20;4.10;;;10.50;91.40;;;;;;5086740;28;20485;-72
2022/10/19 04:30:20;;;;;;;6.60;3.90;;;10.50;91.70;;;;;;5090110;28;20480;-73
2022/10/19 04:32:47;;;;;;;5.50;3.93;;;10.50;91.80;;;;;;5086164;28;20463;-72
2022/10/19 04:35:15;;;;;;;7.00;4.00;;;10.50;92.00;;;;;;5092821;28;20801;-73
2022/10/19 04:37:42;;;;;;;5.83;3.77;;;10.50;92.10;;;;;;5090896;28;20459;-73
2022/10/19 04:40:10;;;;;;;8.90;5.00;;;10.50;92.20;;;;;;5074469;28;20850;-73
2022/10/19 04:42:37;;;;;;;4.53;3.30;;;10.50;92.50;;;;;;5074197;28;20490;-73
2022/10/19 04:45:05;;;;;;;11.83;4.47;;;10.50;92.60;;;;;;5078614;28;20481;-73
2022/10/19 04:47:31;;;;;;;7.53;4.87;;;10.50;92.80;;;;;;5074839;28;20458;-73
2022/10/19 04:49:58;;;;;;;7.87;4.00;;;10.60;93.00;;;;;;5086619;28;20474;-70
2022/10/19 04:52:26;;;;;;;7.33;4.00;;;10.60;93.20;;;;;;5096827;28;20495;-70
2022/10/19 04:54:53;;;;;;;5.33;4.20;;;10.60;93.20;;;;;;5096908;28;20458;-70
2022/10/19 04:57:20;;;;;;;7.00;4.60;;;10.60;93.20;;;;;;5098195;28;20555;-69
2022/10/19 04:59:47;;;;;;;10.10;4.90;;;10.50;93.20;;;;;;5096627;28;20984;-70
2022/10/19 05:02:13;;;;;;;6.63;4.33;;;10.50;93.20;;;;;;5098589;28;20472;-69
2022/10/19 05:04:40;;;;;;;9.60;4.97;;;10.60;93.20;;;;;;5094835;28;20444;-69
2022/10/19 05:07:07;;;;;;;5.67;4.27;;;10.60;93.10;;;;;;5096606;28;20443;-70
2022/10/19 05:09:35;;;;;;;4.97;4.13;;;10.50;93.00;;;;;;5101883;28;20474;-70
2022/10/19 05:12:02;;;;;;;6.80;5.53;;;10.50;92.90;;;;;;5112394;28;20459;-70
2022/10/19 05:14:29;;;;;;;7.43;5.00;;;10.50;92.80;;;;;;5115475;28;20461;-70
2022/10/19 05:16:56;;;;;;;7.83;4.40;;;10.50;92.70;;;;;;5114876;28;20438;-70
2022/10/19 05:19:22;;;;;;;7.53;5.33;;;10.50;92.50;;;;;;5114875;28;20462;-70
2022/10/19 05:21:49;;;;;;;4.77;3.63;;;10.50;92.40;;;;;;5115064;28;20450;-71
2022/10/19 05:24:16;;;;;;;4.57;3.70;;;10.40;92.20;;;;;;5115442;28;20517;-71
2022/10/19 05:26:44;;;;;;;3.77;2.70;;;10.30;92.00;;;;;;5115006;28;20436;-71
2022/10/19 05:29:13;;;;;;;5.80;2.67;;;10.20;91.70;;;;;;5115068;28;20469;-71
2022/10/19 05:31:40;;;;;;;7.43;2.90;;;10.20;91.80;;;;;;5114255;28;20434;-71
2022/10/19 05:34:06;;;;;;;4.00;3.30;;;10.10;91.70;;;;;;5115052;28;20447;-71
2022/10/19 05:36:35;;;;;;;6.40;2.70;;;10.00;91.70;;;;;;5116885;28;20432;-71
2022/10/19 05:39:04;;;;;;;8.50;3.10;;;10.00;91.80;;;;;;5119179;28;20459;-70
2022/10/19 05:41:31;;;;;;;5.60;3.43;;;10.00;92.00;;;;;;5116194;28;20476;-70
2022/10/19 05:44:01;;;;;;;4.30;3.67;;;10.00;92.20;;;;;;5115555;28;20490;-70
2022/10/19 05:46:29;;;;;;;5.33;4.53;;;10.00;92.20;;;;;;5114840;28;20523;-70
2022/10/19 05:48:57;;;;;;;5.30;3.47;;;10.00;92.10;;;;;;5114145;28;20445;-70
2022/10/19 05:51:25;;;;;;;4.50;3.23;;;10.00;91.90;;;;;;5115487;28;20449;-70
2022/10/19 05:53:53;;;;;;;5.40;3.60;;;10.00;91.90;;;;;;5116234;28;20433;-70
2022/10/19 05:56:22;;;;;;;6.07;3.63;;;10.00;91.70;;;;;;5116380;28;20444;-70
2022/10/19 05:58:49;;;;;;;3.73;3.30;;;10.00;91.50;;;;;;5116331;28;20527;-70
2022/10/19 06:01:18;;;;;;;5.77;2.83;;;10.00;91.30;;;;;;5116061;28;20437;-70
2022/10/19 06:03:46;;;;;;;4.30;2.83;;;10.00;91.20;;;;;;5115171;28;20470;-70
2022/10/19 06:06:12;;;;;;;4.50;3.03;;;10.00;91.10;;;;;;5115615;28;20437;-71
2022/10/19 06:08:39;;;;;;;7.03;3.57;;;9.90;91.70;;;;;;5115575;28;20446;-71
2022/10/19 06:11:08;;;;;;;3.87;3.40;;;9.90;91.90;;;;;;5115659;28;20469;-71
2022/10/19 06:13:35;;;;;;;9.40;3.47;;;9.90;92.00;;;;;;5116192;28;20444;-71
2022/10/19 06:16:02;;;;;;;8.13;4.20;;;9.90;91.90;;;;;;5116179;28;20455;-71
2022/10/19 06:18:30;;;;;;;7.60;3.37;;;9.90;91.90;;;;;;5116099;28;20454;-71
2022/10/19 06:21:02;;;;;;;4.80;4.40;;;9.90;91.90;;;;;;5116220;28;20473;-72
2022/10/19 06:23:29;;;;;;;6.20;4.00;;;9.90;92.00;;;;;;5115548;28;20504;-72
2022/10/19 06:25:56;;;;;;;6.80;4.40;;;9.90;92.00;;;;;;5115730;28;20476;-71
2022/10/19 06:28:22;;;;;;;6.17;3.63;;;9.80;92.00;;;;;;5116634;28;20455;-71
2022/10/19 06:30:49;;;;;;;10.97;3.30;;;9.90;92.00;;;;;;5117044;28;20457;-71
2022/10/19 06:33:16;;;;;;;5.93;3.67;;;9.90;92.00;;;;;;5116096;28;20445;-71
2022/10/19 06:35:44;;;;;;;7.07;3.67;;;9.90;92.20;;;;;;5117305;28;20501;-72
2022/10/19 06:38:12;;;;;;;6.13;4.00;;;9.90;92.40;;;;;;5116955;28;20453;-72
2022/10/19 06:40:39;;;;;;;5.50;3.70;;;9.90;92.50;;;;;;5116529;28;20478;-72
2022/10/19 06:43:06;;;;;;;7.17;4.17;;;10.00;92.10;;;;;;5117324;28;20456;-72
2022/10/19 06:45:33;;;;;;;8.23;4.73;;;10.00;92.20;;;;;;5115918;28;20429;-72
2022/10/19 06:48:00;;;;;;;5.30;4.53;;;10.00;92.40;;;;;;5117037;28;20460;-71
2022/10/19 06:50:27;;;;;;;6.60;4.30;;;10.00;92.50;;;;;;5116733;28;20481;-71
2022/10/19 06:52:55;;;;;;;8.30;5.23;;;10.00;92.70;;;;;;5116556;28;20421;-71
2022/10/19 06:55:21;;;;;;;9.93;5.53;;;10.10;93.00;;;;;;5115881;28;20438;-72
2022/10/19 06:57:48;;;;;;;6.80;4.43;;;10.10;93.10;;;;;;5113232;28;20448;-70
2022/10/19 07:00:16;;;;;;;9.60;5.57;;;10.10;93.40;;;;;;5112989;28;20474;-70
2022/10/19 07:02:42;;;;;;;6.97;5.97;;;10.10;93.60;;;;;;5109781;28;20440;-70
2022/10/19 07:05:10;;;;;;;7.20;5.40;;;10.20;93.90;;;;;;5111957;28;20453;-70
2022/10/19 07:07:36;;;;;;;11.57;7.10;;;10.20;94.00;;;;;;5113017;28;20540;-69
2022/10/19 07:10:05;;;;;;;15.07;6.20;;;10.30;94.30;;;;;;5112966;28;20468;-69
2022/10/19 07:12:32;;;;;;;7.63;6.20;;;10.30;94.40;;;;;;5112819;28;20506;-69
2022/10/19 07:14:59;;;;;;;6.60;5.50;;;10.30;94.40;;;;;;5110560;28;20447;-69
2022/10/19 07:17:26;;;;;;;8.70;6.30;;;10.40;94.60;;;;;;5110201;28;20467;-70
2022/10/19 07:19:53;;;;;;;9.47;6.20;;;10.40;94.60;;;;;;5110583;28;20495;-70
2022/10/19 07:22:20;;;;;;;11.00;6.90;;;10.40;94.80;;;;;;5110920;28;20453;-70
2022/10/19 07:24:47;;;;;;;10.43;6.10;;;10.50;95.10;;;;;;5110464;28;20580;-70
2022/10/19 07:27:15;;;;;;;9.03;6.53;;;10.60;95.30;;;;;;5110241;28;20443;-70
2022/10/19 07:29:42;;;;;;;19.70;8.00;;;10.60;95.50;;;;;;5109580;28;20469;-70
2022/10/19 07:32:09;;;;;;;9.77;7.00;;;10.70;95.70;;;;;;5110523;28;20448;-70
2022/10/19 07:34:36;;;;;;;12.10;7.50;;;10.70;95.90;;;;;;5111804;28;20431;-70
2022/10/19 07:37:02;;;;;;;12.13;7.10;;;10.80;96.20;;;;;;5112204;28;20866;-70
2022/10/19 07:39:29;;;;;;;12.90;8.33;;;10.80;96.30;;;;;;5112430;28;20474;-70
2022/10/19 07:41:56;;;;;;;13.87;8.00;;;10.90;97.00;;;;;;5111970;28;20458;-70
2022/10/19 07:44:24;;;;;;;7.70;5.57;;;10.90;96.80;;;;;;5115080;28;20482;-72
2022/10/19 07:46:51;;;;;;;17.87;7.87;;;10.90;97.00;;;;;;5111949;28;20433;-71
2022/10/19 07:49:18;;;;;;;14.00;8.03;;;11.10;97.20;;;;;;5111841;28;20473;-71
2022/10/19 07:51:45;;;;;;;13.20;7.80;;;11.10;97.30;;;;;;5112681;28;20786;-71
2022/10/19 07:54:13;;;;;;;11.93;7.27;;;11.20;97.30;;;;;;5113077;28;20447;-71
2022/10/19 07:56:40;;;;;;;10.33;7.13;;;11.30;97.40;;;;;;5113187;28;20442;-71
2022/10/19 07:59:06;;;;;;;13.03;7.63;;;11.30;97.50;;;;;;5113813;28;20457;-72
2022/10/19 08:01:39;;;;;;;19.50;9.63;;;11.50;97.60;;;;;;5113201;28;20455;-72
2022/10/19 08:04:06;;;;;;;12.23;7.00;;;11.50;97.50;;;;;;5112649;28;20472;-72
2022/10/19 08:06:33;;;;;;;8.80;7.03;;;11.60;97.50;;;;;;5113090;28;20476;-71
2022/10/19 08:09:00;;;;;;;10.40;6.90;;;11.60;97.50;;;;;;5112883;28;20455;-70
2022/10/19 08:11:29;;;;;;;12.97;8.00;;;11.70;97.50;;;;;;5112219;28;20447;-71
2022/10/19 08:13:58;;;;;;;14.47;7.67;;;11.80;97.40;;;;;;5113944;28;20448;-71
2022/10/19 08:16:27;;;;;;;14.73;7.20;;;11.80;97.30;;;;;;5114265;28;20443;-71
2022/10/19 08:18:59;;;;;;;15.77;8.00;;;11.90;97.30;;;;;;5112804;28;20447;-71
2022/10/19 08:21:26;;;;;;;9.50;6.90;;;12.00;97.30;;;;;;5113023;28;20439;-71
2022/10/19 08:23:53;;;;;;;10.07;5.33;;;12.00;97.30;;;;;;5113506;28;20493;-71
2022/10/19 08:26:19;;;;;;;10.67;6.40;;;12.10;97.10;;;;;;5112717;28;20450;-71
2022/10/19 08:28:46;;;;;;;13.63;7.90;;;12.10;96.90;;;;;;5114100;28;20451;-71
2022/10/19 08:31:15;;;;;;;11.03;6.17;;;12.10;96.80;;;;;;5113394;28;20462;-71
2022/10/19 08:33:42;;;;;;;12.60;7.87;;;12.20;96.90;;;;;;5113087;28;20443;-71
2022/10/19 08:36:12;;;;;;;12.70;7.53;;;12.20;96.90;;;;;;5113293;28;20454;-70
2022/10/19 08:38:40;;;;;;;11.13;7.20;;;12.30;97.00;;;;;;5116237;28;20457;-71
2022/10/19 08:41:18;;;;;;;11.80;6.80;;;12.40;97.10;;;;;;5117191;28;20474;-71
2022/10/19 08:43:58;;;;;;;8.03;6.60;;;12.40;97.10;;;;;;5113832;28;20471;-71
2022/10/19 08:46:28;;;;;;;11.33;8.10;;;12.50;97.10;;;;;;5113595;28;20424;-71
2022/10/19 08:48:56;;;;;;;14.73;7.40;;;12.50;97.10;;;;;;5113188;28;20407;-71
2022/10/19 08:51:24;;;;;;;13.83;7.00;;;12.60;97.10;;;;;;5113240;28;20451;-71
2022/10/19 08:53:55;;;;;;;12.83;8.10;;;12.70;97.00;;;;;;5113197;28;20451;-71
2022/10/19 08:56:29;;;;;;;8.20;6.97;;;12.80;96.90;;;;;;5112733;28;20430;-71
2022/10/19 08:59:08;;;;;;;11.70;6.70;;;12.80;96.80;;;;;;5112724;28;20442;-72
2022/10/19 09:01:40;;;;;;;12.93;6.87;;;12.90;96.70;;;;;;5112340;28;20439;-72
2022/10/19 09:04:14;;;;;;;16.07;7.27;;;13.00;96.60;;;;;;5112991;28;20471;-71
2022/10/19 09:06:49;;;;;;;12.80;8.17;;;13.00;96.40;;;;;;5113650;28;20436;-71
2022/10/19 09:09:20;;;;;;;12.20;6.60;;;13.10;96.10;;;;;;5112958;28;20461;-71
2022/10/19 09:11:49;;;;;;;11.13;6.70;;;13.20;96.00;;;;;;5113572;28;20429;-71
2022/10/19 09:14:21;;;;;;;8.77;6.03;;;13.20;95.80;;;;;;5114009;28;20441;-72
2022/10/19 09:16:48;;;;;;;9.40;6.93;;;13.30;95.70;;;;;;5113788;28;20458;-72
2022/10/19 09:19:21;;;;;;;7.57;6.40;;;13.40;95.50;;;;;;5112751;28;20462;-72
2022/10/19 09:21:53;;;;;;;9.13;6.77;;;13.50;95.40;;;;;;5113518;28;20425;-72
2022/10/19 09:24:28;;;;;;;10.57;6.50;;;13.60;95.20;;;;;;5112096;28;20868;-72
2022/10/19 09:26:57;;;;;;;10.07;6.30;;;13.70;95.10;;;;;;5113843;28;20856;-72
2022/10/19 09:29:28;;;;;;;9.33;5.97;;;13.80;95.00;;;;;;5113012;28;20475;-72
2022/10/19 09:31:58;;;;;;;13.77;6.43;;;13.90;95.00;;;;;;5113228;28;20463;-72
2022/10/19 09:34:29;;;;;;;11.03;7.30;;;14.00;95.40;;;;;;5113850;28;20454;-72
2022/10/19 09:36:59;;;;;;;11.53;7.83;;;14.10;95.10;;;;;;5113997;28;20415;-70
2022/10/19 09:39:28;;;;;;;12.17;7.43;;;14.20;95.00;;;;;;5113866;28;20475;-72
2022/10/19 09:41:56;;;;;;;11.40;7.37;;;14.40;95.20;;;;;;5118159;28;20480;-71
2022/10/19 09:44:24;;;;;;;7.90;6.93;;;14.50;95.10;;;;;;5117596;28;20496;-72
2022/10/19 09:46:55;;;;;;;11.63;7.97;;;14.60;95.10;;;;;;5117098;28;20431;-72
2022/10/19 09:49:39;;;;;;;13.97;7.77;;;14.80;95.20;;;;;;5117444;28;20472;-72
2022/10/19 09:52:24;;;;;;;9.53;6.40;;;14.90;94.80;;;;;;5117225;28;20428;-72
2022/10/19 09:54:59;;;;;;;8.57;6.53;;;15.10;94.10;;;;;;5116134;28;20439;-72
2022/10/19 09:57:26;;;;;;;6.80;6.10;;;15.30;93.90;;;;;;5117707;28;20427;-72
2022/10/19 09:59:53;;;;;;;12.57;6.73;;;15.50;93.30;;;;;;5116231;28;20460;-72
2022/10/19 10:02:22;;;;;;;11.77;6.93;;;15.70;93.20;;;;;;5117839;28;20455;-73
2022/10/19 10:04:56;;;;;;;10.13;6.27;;;15.90;92.60;;;;;;5117618;28;20486;-73
2022/10/19 10:07:32;;;;;;;6.37;4.60;;;16.10;91.80;;;;;;5117365;28;20424;-73
2022/10/19 10:09:59;;;;;;;9.40;6.17;;;16.40;90.80;;;;;;5117284;28;20468;-72
2022/10/19 10:12:26;;;;;;;13.13;6.00;;;16.80;89.40;;;;;;5116796;28;20448;-72
2022/10/19 10:14:55;;;;;;;9.40;4.93;;;17.20;87.50;;;;;;5116585;28;20448;-71
2022/10/19 10:17:27;;;;;;;10.83;6.60;;;17.70;85.10;;;;;;5117122;28;20429;-71
2022/10/19 10:20:17;;;;;;;9.03;5.70;;;18.30;83.00;;;;;;5116333;28;20475;-70
2022/10/19 10:22:55;;;;;;;8.70;6.13;;;18.80;80.70;;;;;;5116388;28;20430;-71
2022/10/19 10:25:24;;;;;;;13.00;6.10;;;19.40;77.10;;;;;;5116273;28;20471;-71
2022/10/19 10:27:56;;;;;;;8.37;5.67;;;20.00;73.50;;;;;;5116457;28;20429;-71
2022/10/19 10:30:23;;;;;;;10.17;5.63;;;20.50;70.50;;;;;;5115759;28;20641;-71
2022/10/19 10:32:52;;;;;;;7.37;5.80;;;21.10;68.60;;;;;;5112188;28;20458;-69
2022/10/19 10:35:23;;;;;;;9.63;5.67;;;21.60;64.50;;;;;;5113592;28;20429;-70
2022/10/19 10:37:51;;;;;;;9.87;5.07;;;22.10;62.10;;;;;;5113851;28;20827;-70
2022/10/19 10:40:22;;;;;;;10.37;6.10;;;22.50;59.50;;;;;;5113310;28;20543;-70
2022/10/19 10:42:50;;;;;;;9.50;5.97;;;22.80;57.90;;;;;;5112232;28;20432;-70
2022/10/19 10:45:22;;;;;;;9.60;5.60;;;23.10;56.30;;;;;;5112048;28;20467;-69
2022/10/19 10:47:49;;;;;;;7.80;5.53;;;23.20;55.70;;;;;;5111738;28;20436;-69
2022/10/19 10:50:21;;;;;;;11.50;6.60;;;23.40;55.20;;;;;;5112386;28;20490;-70
2022/10/19 10:53:01;;;;;;;10.23;5.30;;;23.70;54.70;;;;;;5110522;28;20435;-70
2022/10/19 10:55:29;;;;;;;9.83;5.80;;;24.10;52.80;;;;;;5108847;28;20443;-70
2022/10/19 10:58:09;;;;;;;11.73;5.20;;;24.50;51.90;;;;;;5104208;28;20448;-70
2022/10/19 11:00:39;;;;;;;11.23;5.27;;;24.90;51.10;;;;;;5106418;28;20474;-70
2022/10/19 11:03:12;;;;;;;9.07;4.90;;;25.30;50.20;;;;;;5110117;28;20455;-70
2022/10/19 11:05:41;;;;;;;5.43;4.50;;;25.70;48.40;;;;;;5110546;28;20468;-70
2022/10/19 11:08:18;;;;;;;8.33;4.90;;;26.10;47.40;;;;;;5111484;28;20982;-70
2022/10/19 11:10:51;;;;;;;7.07;4.20;;;26.40;46.20;;;;;;5107217;28;20989;-70
2022/10/19 11:13:23;;;;;;;6.60;4.53;;;26.80;46.20;;;;;;5106527;28;20447;-69
2022/10/19 11:15:54;;;;;;;12.63;5.67;;;27.20;44.60;;;;;;5107670;28;20456;-69
2022/10/19 11:18:25;;;;;;;9.30;4.30;;;27.60;43.90;;;;;;5108481;28;20439;-69
2022/10/19 11:21:00;;;;;;;13.93;4.87;;;27.80;42.50;;;;;;5111073;28;20468;-70
2022/10/19 11:23:40;;;;;;;5.30;4.20;;;28.10;41.00;;;;;;5109445;28;20436;-70
2022/10/19 11:26:19;;;;;;;9.70;4.93;;;28.30;40.90;;;;;;5109354;28;20462;-70
2022/10/19 11:29:00;;;;;;;5.47;4.70;;;28.60;40.30;;;;;;5103372;28;20432;-69
2022/10/19 11:31:38;;;;;;;9.30;4.93;;;28.70;38.80;;;;;;5103705;28;20436;-70
2022/10/19 11:34:19;;;;;;;6.90;4.33;;;28.40;38.40;;;;;;5105436;28;20435;-70
2022/10/19 11:36:53;;;;;;;6.47;4.83;;;28.20;38.60;;;;;;5106077;28;20431;-69
2022/10/19 11:39:44;;;;;;;6.40;3.87;;;28.20;38.80;;;;;;5105000;28;20497;-69
2022/10/19 11:42:17;;;;;;;9.53;4.00;;;28.30;39.20;;;;;;5104248;28;20460;-69
2022/10/19 11:44:57;;;;;;;7.70;4.50;;;28.50;39.20;;;;;;5106871;28;20486;-69
2022/10/19 11:47:33;;;;;;;11.00;5.57;;;28.60;38.10;;;;;;5104186;28;20997;-69
2022/10/19 11:50:10;;;;;;;5.53;4.20;;;28.60;38.10;;;;;;5108157;28;20463;-69
2022/10/19 11:52:45;;;;;;;5.17;4.10;;;28.60;38.40;;;;;;5106802;28;20423;-69
2022/10/19 11:55:23;;;;;;;4.87;4.10;;;29.00;38.70;;;;;;5105219;28;20435;-69
2022/10/19 11:57:56;;;;;;;6.60;4.53;;;29.50;37.10;;;;;;5107275;28;20432;-69
2022/10/19 12:00:23;;;;;;;6.23;3.73;;;30.00;36.00;;;;;;5105350;28;20808;-69
2022/10/19 12:03:10;;;;;;;7.70;4.30;;;30.50;35.20;;;;;;5106516;28;20455;-69
2022/10/19 12:05:48;;;;;;;7.27;4.80;;;30.90;34.50;;;;;;5108197;28;20474;-69
2022/10/19 12:08:30;;;;;;;6.70;4.80;;;31.30;32.80;;;;;;5110316;28;20432;-69
2022/10/19 12:11:06;;;;;;;8.67;4.33;;;31.50;31.90;;;;;;5110274;28;21059;-70
2022/10/19 12:13:40;;;;;;;6.10;4.03;;;31.60;31.90;;;;;;5108222;28;20464;-69
2022/10/19 12:16:09;;;;;;;5.13;4.10;;;31.70;32.70;;;;;;5106024;28;20428;-69
2022/10/19 12:18:40;;;;;;;6.30;4.40;;;32.00;32.40;;;;;;5106961;28;20446;-69
2022/10/19 12:21:11;;;;;;;7.53;4.27;;;32.30;31.50;;;;;;5106317;28;20490;-70
2022/10/19 12:23:39;;;;;;;9.67;4.47;;;32.60;31.00;;;;;;5109072;28;20439;-70
2022/10/19 12:26:11;;;;;;;8.13;4.67;;;32.80;29.90;;;;;;5107989;28;20474;-70
2022/10/19 12:28:42;;;;;;;6.20;4.30;;;33.10;30.00;;;;;;5106095;28;20440;-70
2022/10/19 12:31:10;;;;;;;4.40;3.30;;;33.40;29.90;;;;;;5107782;28;20482;-69
2022/10/19 12:33:46;;;;;;;5.40;3.60;;;33.60;29.70;;;;;;5106632;28;20819;-69
2022/10/19 12:36:28;;;;;;;4.93;3.80;;;33.90;29.20;;;;;;5105398;28;20861;-69
2022/10/19 12:39:02;;;;;;;9.47;3.80;;;34.10;28.90;;;;;;5105958;28;20439;-70
2022/10/19 12:41:36;;;;;;;5.20;3.83;;;34.30;28.70;;;;;;5105244;28;20460;-69
2022/10/19 12:44:21;;;;;;;5.53;4.17;;;34.40;28.00;;;;;;5104137;28;20428;-69
2022/10/19 12:46:51;;;;;;;8.63;4.00;;;34.50;27.20;;;;;;5102044;28;20569;-70
2022/10/19 12:49:47;;;;;;;8.13;3.50;;;34.50;27.00;;;;;;5105359;28;20464;-70
2022/10/19 12:52:16;;;;;;;5.50;3.33;;;34.50;27.40;;;;;;5105048;28;20196;-70
2022/10/19 12:54:44;;;;;;;6.73;3.23;;;34.60;27.20;;;;;;5106144;28;20204;-70
2022/10/19 12:57:27;;;;;;;5.63;3.20;;;34.60;27.00;;;;;;5106005;28;20185;-69
2022/10/19 13:00:00;;;;;;;6.30;3.00;;;34.60;27.30;;;;;;5105189;28;20281;-70